sensor_id;sensor_type;location;lat;lon;timestamp;P1;durP1;ratioP1;P2;durP2;ratioP2
25125;SDS011;13106;50.808;5.670;2022-10-31T00:02:10;23.35;;;13.75;;
25125;SDS011;13106;50.808;5.670;2022-10-31T00:04:36;27.45;;;13.55;;
25125;SDS011;13106;50.808;5.670;2022-10-31T00:07:02;24.15;;;13.77;;
25125;SDS011;13106;50.808;5.670;2022-10-31T00:09:28;25.23;;;13.90;;
25125;SDS011;13106;50.808;5.670;2022-10-31T00:11:55;24.10;;;14.20;;
25125;SDS011;13106;50.808;5.670;2022-10-31T00:14:21;27.85;;;13.18;;
25125;SDS011;13106;50.808;5.670;2022-10-31T00:16:47;27.33;;;14.23;;
25125;SDS011;13106;50.808;5.670;2022-10-31T00:19:13;25.45;;;13.63;;
25125;SDS011;13106;50.808;5.670;2022-10-31T00:21:39;23.20;;;13.48;;
25125;SDS011;13106;50.808;5.670;2022-10-31T00:24:05;27.50;;;13.43;;
25125;SDS011;13106;50.808;5.670;2022-10-31T00:26:31;26.75;;;14.02;;
25125;SDS011;13106;50.808;5.670;2022-10-31T00:28:58;29.85;;;12.63;;
25125;SDS011;13106;50.808;5.670;2022-10-31T00:31:24;25.98;;;14.40;;
25125;SDS011;13106;50.808;5.670;2022-10-31T00:33:50;20.73;;;14.57;;
25125;SDS011;13106;50.808;5.670;2022-10-31T00:36:17;31.10;;;13.65;;
25125;SDS011;13106;50.808;5.670;2022-10-31T00:38:43;21.02;;;12.95;;
25125;SDS011;13106;50.808;5.670;2022-10-31T00:41:12;30.27;;;13.45;;
25125;SDS011;13106;50.808;5.670;2022-10-31T00:43:38;24.20;;;13.52;;
25125;SDS011;13106;50.808;5.670;2022-10-31T00:46:04;27.42;;;14.20;;
25125;SDS011;13106;50.808;5.670;2022-10-31T00:48:31;24.77;;;13.55;;
25125;SDS011;13106;50.808;5.670;2022-10-31T00:50:57;27.25;;;14.70;;
25125;SDS011;13106;50.808;5.670;2022-10-31T00:53:23;27.60;;;13.73;;
25125;SDS011;13106;50.808;5.670;2022-10-31T00:55:49;24.67;;;14.13;;
25125;SDS011;13106;50.808;5.670;2022-10-31T00:58:15;27.02;;;13.18;;
25125;SDS011;13106;50.808;5.670;2022-10-31T01:00:41;25.30;;;12.63;;
25125;SDS011;13106;50.808;5.670;2022-10-31T01:03:07;27.75;;;13.18;;
25125;SDS011;13106;50.808;5.670;2022-10-31T01:05:34;25.58;;;13.30;;
25125;SDS011;13106;50.808;5.670;2022-10-31T01:08:00;23.77;;;12.77;;
25125;SDS011;13106;50.808;5.670;2022-10-31T01:10:26;24.13;;;14.57;;
25125;SDS011;13106;50.808;5.670;2022-10-31T01:12:52;25.33;;;13.63;;
25125;SDS011;13106;50.808;5.670;2022-10-31T01:15:19;26.00;;;12.82;;
25125;SDS011;13106;50.808;5.670;2022-10-31T01:17:45;27.80;;;13.68;;
25125;SDS011;13106;50.808;5.670;2022-10-31T01:20:12;23.38;;;12.60;;
25125;SDS011;13106;50.808;5.670;2022-10-31T01:22:38;26.50;;;13.57;;
25125;SDS011;13106;50.808;5.670;2022-10-31T01:25:04;21.05;;;12.35;;
25125;SDS011;13106;50.808;5.670;2022-10-31T01:27:31;22.23;;;13.43;;
25125;SDS011;13106;50.808;5.670;2022-10-31T01:29:57;21.58;;;12.02;;
25125;SDS011;13106;50.808;5.670;2022-10-31T01:32:23;25.85;;;12.80;;
25125;SDS011;13106;50.808;5.670;2022-10-31T01:34:49;24.48;;;12.55;;
25125;SDS011;13106;50.808;5.670;2022-10-31T01:37:16;21.17;;;12.30;;
25125;SDS011;13106;50.808;5.670;2022-10-31T01:39:42;22.23;;;12.80;;
25125;SDS011;13106;50.808;5.670;2022-10-31T01:42:10;27.58;;;12.77;;
25125;SDS011;13106;50.808;5.670;2022-10-31T01:47:08;24.83;;;12.57;;
25125;SDS011;13106;50.808;5.670;2022-10-31T01:52:07;21.55;;;11.60;;
25125;SDS011;13106;50.808;5.670;2022-10-31T01:54:37;23.98;;;12.88;;
25125;SDS011;13106;50.808;5.670;2022-10-31T01:57:05;20.42;;;12.05;;
25125;SDS011;13106;50.808;5.670;2022-10-31T01:59:32;21.48;;;12.30;;
25125;SDS011;13106;50.808;5.670;2022-10-31T02:02:00;22.38;;;11.40;;
25125;SDS011;13106;50.808;5.670;2022-10-31T02:04:27;26.83;;;12.50;;
25125;SDS011;13106;50.808;5.670;2022-10-31T02:06:54;22.95;;;12.48;;
25125;SDS011;13106;50.808;5.670;2022-10-31T02:09:22;24.48;;;12.73;;
25125;SDS011;13106;50.808;5.670;2022-10-31T02:11:52;24.90;;;12.95;;
25125;SDS011;13106;50.808;5.670;2022-10-31T02:14:19;26.58;;;12.60;;
25125;SDS011;13106;50.808;5.670;2022-10-31T02:16:46;20.75;;;10.32;;
25125;SDS011;13106;50.808;5.670;2022-10-31T02:19:13;21.55;;;11.02;;
25125;SDS011;13106;50.808;5.670;2022-10-31T02:27:07;21.63;;;10.77;;
25125;SDS011;13106;50.808;5.670;2022-10-31T02:29:44;27.55;;;12.15;;
25125;SDS011;13106;50.808;5.670;2022-10-31T02:37:14;30.42;;;11.27;;
25125;SDS011;13106;50.808;5.670;2022-10-31T02:42:09;29.83;;;11.07;;
25125;SDS011;13106;50.808;5.670;2022-10-31T02:44:38;29.35;;;10.68;;
25125;SDS011;13106;50.808;5.670;2022-10-31T02:47:06;24.40;;;10.27;;
25125;SDS011;13106;50.808;5.670;2022-10-31T02:52:25;26.05;;;10.57;;
25125;SDS011;13106;50.808;5.670;2022-10-31T02:54:51;33.15;;;10.63;;
25125;SDS011;13106;50.808;5.670;2022-10-31T02:57:23;26.30;;;10.80;;
25125;SDS011;13106;50.808;5.670;2022-10-31T02:59:52;30.08;;;12.23;;
25125;SDS011;13106;50.808;5.670;2022-10-31T03:08:00;32.88;;;11.63;;
25125;SDS011;13106;50.808;5.670;2022-10-31T03:10:37;27.58;;;11.52;;
25125;SDS011;13106;50.808;5.670;2022-10-31T03:13:20;31.98;;;11.77;;
25125;SDS011;13106;50.808;5.670;2022-10-31T03:15:51;38.05;;;10.82;;
25125;SDS011;13106;50.808;5.670;2022-10-31T03:18:25;34.90;;;11.55;;
25125;SDS011;13106;50.808;5.670;2022-10-31T03:20:55;36.53;;;11.70;;
25125;SDS011;13106;50.808;5.670;2022-10-31T03:23:23;47.35;;;13.15;;
25125;SDS011;13106;50.808;5.670;2022-10-31T03:25:50;39.47;;;12.35;;
25125;SDS011;13106;50.808;5.670;2022-10-31T03:28:18;45.72;;;12.57;;
25125;SDS011;13106;50.808;5.670;2022-10-31T03:30:48;34.15;;;10.98;;
25125;SDS011;13106;50.808;5.670;2022-10-31T03:33:16;32.92;;;11.10;;
25125;SDS011;13106;50.808;5.670;2022-10-31T03:35:44;25.73;;;10.30;;
25125;SDS011;13106;50.808;5.670;2022-10-31T03:38:12;33.78;;;10.93;;
25125;SDS011;13106;50.808;5.670;2022-10-31T03:40:39;29.42;;;11.10;;
25125;SDS011;13106;50.808;5.670;2022-10-31T03:43:08;29.40;;;10.93;;
25125;SDS011;13106;50.808;5.670;2022-10-31T03:45:38;26.05;;;10.60;;
25125;SDS011;13106;50.808;5.670;2022-10-31T03:48:05;24.83;;;10.52;;
25125;SDS011;13106;50.808;5.670;2022-10-31T03:50:35;30.23;;;11.00;;
25125;SDS011;13106;50.808;5.670;2022-10-31T03:53:05;26.80;;;11.15;;
25125;SDS011;13106;50.808;5.670;2022-10-31T03:58:03;20.50;;;11.68;;
25125;SDS011;13106;50.808;5.670;2022-10-31T04:00:32;24.92;;;11.35;;
25125;SDS011;13106;50.808;5.670;2022-10-31T04:03:00;19.02;;;10.45;;
25125;SDS011;13106;50.808;5.670;2022-10-31T04:05:29;24.53;;;10.33;;
25125;SDS011;13106;50.808;5.670;2022-10-31T04:07:57;20.10;;;10.45;;
25125;SDS011;13106;50.808;5.670;2022-10-31T04:10:24;19.85;;;10.63;;
25125;SDS011;13106;50.808;5.670;2022-10-31T04:12:52;21.02;;;10.88;;
25125;SDS011;13106;50.808;5.670;2022-10-31T04:15:21;17.45;;;10.55;;
25125;SDS011;13106;50.808;5.670;2022-10-31T04:17:47;23.38;;;11.05;;
25125;SDS011;13106;50.808;5.670;2022-10-31T04:20:16;24.85;;;10.93;;
25125;SDS011;13106;50.808;5.670;2022-10-31T04:22:42;23.42;;;11.75;;
25125;SDS011;13106;50.808;5.670;2022-10-31T04:25:08;21.02;;;11.13;;
25125;SDS011;13106;50.808;5.670;2022-10-31T04:27:34;20.17;;;11.55;;
25125;SDS011;13106;50.808;5.670;2022-10-31T04:30:00;21.25;;;11.57;;
25125;SDS011;13106;50.808;5.670;2022-10-31T04:32:26;22.45;;;11.57;;
25125;SDS011;13106;50.808;5.670;2022-10-31T04:34:52;19.95;;;11.50;;
25125;SDS011;13106;50.808;5.670;2022-10-31T04:37:18;21.05;;;11.80;;
25125;SDS011;13106;50.808;5.670;2022-10-31T04:39:44;23.90;;;11.98;;
25125;SDS011;13106;50.808;5.670;2022-10-31T04:42:10;22.52;;;12.20;;
25125;SDS011;13106;50.808;5.670;2022-10-31T04:44:36;20.45;;;11.00;;
25125;SDS011;13106;50.808;5.670;2022-10-31T04:47:02;23.48;;;12.38;;
25125;SDS011;13106;50.808;5.670;2022-10-31T04:49:28;21.15;;;12.20;;
25125;SDS011;13106;50.808;5.670;2022-10-31T04:51:55;24.92;;;12.48;;
25125;SDS011;13106;50.808;5.670;2022-10-31T04:54:21;22.10;;;12.35;;
25125;SDS011;13106;50.808;5.670;2022-10-31T04:56:46;23.45;;;12.40;;
25125;SDS011;13106;50.808;5.670;2022-10-31T04:59:12;22.33;;;12.27;;
25125;SDS011;13106;50.808;5.670;2022-10-31T05:01:38;24.80;;;12.95;;
25125;SDS011;13106;50.808;5.670;2022-10-31T05:04:04;25.23;;;13.07;;
25125;SDS011;13106;50.808;5.670;2022-10-31T05:06:30;26.42;;;12.68;;
25125;SDS011;13106;50.808;5.670;2022-10-31T05:08:56;23.98;;;12.85;;
25125;SDS011;13106;50.808;5.670;2022-10-31T05:11:23;23.35;;;12.25;;
25125;SDS011;13106;50.808;5.670;2022-10-31T05:13:49;24.50;;;12.43;;
25125;SDS011;13106;50.808;5.670;2022-10-31T05:16:15;23.60;;;13.20;;
25125;SDS011;13106;50.808;5.670;2022-10-31T05:18:41;21.67;;;12.20;;
25125;SDS011;13106;50.808;5.670;2022-10-31T05:21:07;26.30;;;12.60;;
25125;SDS011;13106;50.808;5.670;2022-10-31T05:23:33;28.98;;;12.60;;
25125;SDS011;13106;50.808;5.670;2022-10-31T05:25:59;27.15;;;13.75;;
25125;SDS011;13106;50.808;5.670;2022-10-31T05:28:25;23.17;;;11.27;;
25125;SDS011;13106;50.808;5.670;2022-10-31T05:30:51;24.65;;;13.27;;
25125;SDS011;13106;50.808;5.670;2022-10-31T05:33:17;21.98;;;12.98;;
25125;SDS011;13106;50.808;5.670;2022-10-31T05:35:43;28.17;;;13.10;;
25125;SDS011;13106;50.808;5.670;2022-10-31T05:38:09;21.45;;;12.30;;
25125;SDS011;13106;50.808;5.670;2022-10-31T05:40:35;27.73;;;12.57;;
25125;SDS011;13106;50.808;5.670;2022-10-31T05:43:01;26.48;;;13.98;;
25125;SDS011;13106;50.808;5.670;2022-10-31T05:45:27;27.95;;;13.20;;
25125;SDS011;13106;50.808;5.670;2022-10-31T05:47:54;21.25;;;13.18;;
25125;SDS011;13106;50.808;5.670;2022-10-31T05:50:20;21.02;;;11.82;;
25125;SDS011;13106;50.808;5.670;2022-10-31T05:52:47;22.70;;;13.13;;
25125;SDS011;13106;50.808;5.670;2022-10-31T05:55:13;24.27;;;13.57;;
25125;SDS011;13106;50.808;5.670;2022-10-31T05:57:39;26.10;;;12.95;;
25125;SDS011;13106;50.808;5.670;2022-10-31T06:00:05;21.58;;;12.55;;
25125;SDS011;13106;50.808;5.670;2022-10-31T06:02:32;19.98;;;11.88;;
25125;SDS011;13106;50.808;5.670;2022-10-31T06:04:59;25.35;;;13.30;;
25125;SDS011;13106;50.808;5.670;2022-10-31T06:07:25;27.83;;;13.60;;
25125;SDS011;13106;50.808;5.670;2022-10-31T06:09:52;26.63;;;14.05;;
25125;SDS011;13106;50.808;5.670;2022-10-31T06:12:18;23.33;;;12.55;;
25125;SDS011;13106;50.808;5.670;2022-10-31T06:14:43;22.58;;;11.43;;
25125;SDS011;13106;50.808;5.670;2022-10-31T06:17:10;24.63;;;12.55;;
25125;SDS011;13106;50.808;5.670;2022-10-31T06:19:35;23.88;;;12.05;;
25125;SDS011;13106;50.808;5.670;2022-10-31T06:22:02;25.42;;;12.13;;
25125;SDS011;13106;50.808;5.670;2022-10-31T06:24:28;23.50;;;12.27;;
25125;SDS011;13106;50.808;5.670;2022-10-31T06:26:54;20.08;;;11.98;;
25125;SDS011;13106;50.808;5.670;2022-10-31T06:29:20;20.20;;;12.20;;
25125;SDS011;13106;50.808;5.670;2022-10-31T06:31:46;27.17;;;12.18;;
25125;SDS011;13106;50.808;5.670;2022-10-31T06:34:12;29.70;;;13.13;;
25125;SDS011;13106;50.808;5.670;2022-10-31T06:36:38;22.52;;;12.82;;
25125;SDS011;13106;50.808;5.670;2022-10-31T06:39:04;24.40;;;13.35;;
25125;SDS011;13106;50.808;5.670;2022-10-31T06:41:29;20.77;;;12.13;;
25125;SDS011;13106;50.808;5.670;2022-10-31T06:43:56;24.13;;;12.25;;
25125;SDS011;13106;50.808;5.670;2022-10-31T06:46:21;19.38;;;12.85;;
25125;SDS011;13106;50.808;5.670;2022-10-31T06:48:47;22.40;;;12.23;;
25125;SDS011;13106;50.808;5.670;2022-10-31T06:51:13;19.70;;;12.10;;
25125;SDS011;13106;50.808;5.670;2022-10-31T06:53:39;18.75;;;12.38;;
25125;SDS011;13106;50.808;5.670;2022-10-31T06:56:06;27.42;;;13.10;;
25125;SDS011;13106;50.808;5.670;2022-10-31T06:58:32;20.88;;;12.35;;
25125;SDS011;13106;50.808;5.670;2022-10-31T07:00:58;29.17;;;13.73;;
25125;SDS011;13106;50.808;5.670;2022-10-31T07:03:25;22.45;;;13.60;;
25125;SDS011;13106;50.808;5.670;2022-10-31T07:05:51;22.85;;;13.73;;
25125;SDS011;13106;50.808;5.670;2022-10-31T07:08:17;22.77;;;14.23;;
25125;SDS011;13106;50.808;5.670;2022-10-31T07:10:43;29.55;;;14.18;;
25125;SDS011;13106;50.808;5.670;2022-10-31T07:13:16;24.15;;;13.20;;
25125;SDS011;13106;50.808;5.670;2022-10-31T07:15:42;22.00;;;13.52;;
25125;SDS011;13106;50.808;5.670;2022-10-31T07:18:09;24.13;;;13.65;;
25125;SDS011;13106;50.808;5.670;2022-10-31T07:20:36;23.13;;;13.75;;
25125;SDS011;13106;50.808;5.670;2022-10-31T07:23:02;23.05;;;12.88;;
25125;SDS011;13106;50.808;5.670;2022-10-31T07:25:28;25.85;;;12.68;;
25125;SDS011;13106;50.808;5.670;2022-10-31T07:27:54;22.50;;;13.38;;
25125;SDS011;13106;50.808;5.670;2022-10-31T07:30:20;20.85;;;13.52;;
25125;SDS011;13106;50.808;5.670;2022-10-31T07:32:47;23.25;;;13.20;;
25125;SDS011;13106;50.808;5.670;2022-10-31T07:35:14;27.63;;;13.90;;
25125;SDS011;13106;50.808;5.670;2022-10-31T07:37:42;23.73;;;13.32;;
25125;SDS011;13106;50.808;5.670;2022-10-31T07:40:08;21.20;;;12.82;;
25125;SDS011;13106;50.808;5.670;2022-10-31T07:42:35;30.35;;;14.70;;
25125;SDS011;13106;50.808;5.670;2022-10-31T07:45:02;22.83;;;13.60;;
25125;SDS011;13106;50.808;5.670;2022-10-31T07:47:28;22.30;;;12.55;;
25125;SDS011;13106;50.808;5.670;2022-10-31T07:49:54;26.05;;;13.13;;
25125;SDS011;13106;50.808;5.670;2022-10-31T07:52:20;22.65;;;13.10;;
25125;SDS011;13106;50.808;5.670;2022-10-31T07:54:46;30.30;;;13.95;;
25125;SDS011;13106;50.808;5.670;2022-10-31T07:57:12;24.95;;;13.25;;
25125;SDS011;13106;50.808;5.670;2022-10-31T07:59:38;28.67;;;14.30;;
25125;SDS011;13106;50.808;5.670;2022-10-31T08:02:04;26.45;;;14.65;;
25125;SDS011;13106;50.808;5.670;2022-10-31T08:04:30;22.95;;;13.82;;
25125;SDS011;13106;50.808;5.670;2022-10-31T08:06:56;31.42;;;14.10;;
25125;SDS011;13106;50.808;5.670;2022-10-31T08:09:22;27.38;;;13.82;;
25125;SDS011;13106;50.808;5.670;2022-10-31T08:11:48;29.00;;;14.65;;
25125;SDS011;13106;50.808;5.670;2022-10-31T08:14:14;27.45;;;14.45;;
25125;SDS011;13106;50.808;5.670;2022-10-31T08:16:40;25.08;;;13.98;;
25125;SDS011;13106;50.808;5.670;2022-10-31T08:19:06;22.92;;;14.50;;
25125;SDS011;13106;50.808;5.670;2022-10-31T08:21:32;24.58;;;13.82;;
25125;SDS011;13106;50.808;5.670;2022-10-31T08:23:58;21.95;;;13.20;;
25125;SDS011;13106;50.808;5.670;2022-10-31T08:26:23;27.67;;;14.65;;
25125;SDS011;13106;50.808;5.670;2022-10-31T08:28:49;27.40;;;14.48;;
25125;SDS011;13106;50.808;5.670;2022-10-31T08:31:16;31.15;;;14.70;;
25125;SDS011;13106;50.808;5.670;2022-10-31T08:33:42;26.42;;;13.75;;
25125;SDS011;13106;50.808;5.670;2022-10-31T08:36:08;22.55;;;14.98;;
25125;SDS011;13106;50.808;5.670;2022-10-31T08:38:34;27.40;;;16.67;;
25125;SDS011;13106;50.808;5.670;2022-10-31T08:41:00;32.22;;;15.48;;
25125;SDS011;13106;50.808;5.670;2022-10-31T08:43:26;27.27;;;16.30;;
25125;SDS011;13106;50.808;5.670;2022-10-31T08:45:52;22.60;;;14.70;;
25125;SDS011;13106;50.808;5.670;2022-10-31T08:48:20;27.83;;;14.95;;
25125;SDS011;13106;50.808;5.670;2022-10-31T08:50:46;24.33;;;14.50;;
25125;SDS011;13106;50.808;5.670;2022-10-31T08:53:13;34.05;;;15.85;;
25125;SDS011;13106;50.808;5.670;2022-10-31T08:55:40;27.42;;;16.00;;
25125;SDS011;13106;50.808;5.670;2022-10-31T08:58:08;31.08;;;16.40;;
25125;SDS011;13106;50.808;5.670;2022-10-31T09:00:35;27.02;;;17.17;;
25125;SDS011;13106;50.808;5.670;2022-10-31T09:03:02;33.58;;;17.95;;
25125;SDS011;13106;50.808;5.670;2022-10-31T09:05:28;39.85;;;18.20;;
25125;SDS011;13106;50.808;5.670;2022-10-31T09:07:55;30.02;;;16.95;;
25125;SDS011;13106;50.808;5.670;2022-10-31T09:10:22;33.72;;;18.85;;
25125;SDS011;13106;50.808;5.670;2022-10-31T09:12:54;34.17;;;18.05;;
25125;SDS011;13106;50.808;5.670;2022-10-31T09:15:20;40.67;;;20.88;;
25125;SDS011;13106;50.808;5.670;2022-10-31T09:17:46;35.47;;;19.35;;
25125;SDS011;13106;50.808;5.670;2022-10-31T09:20:12;32.78;;;18.92;;
25125;SDS011;13106;50.808;5.670;2022-10-31T09:22:38;36.13;;;17.77;;
25125;SDS011;13106;50.808;5.670;2022-10-31T09:25:04;31.17;;;19.48;;
25125;SDS011;13106;50.808;5.670;2022-10-31T09:27:31;33.65;;;17.52;;
25125;SDS011;13106;50.808;5.670;2022-10-31T09:29:57;34.58;;;18.02;;
25125;SDS011;13106;50.808;5.670;2022-10-31T09:32:23;34.50;;;18.05;;
25125;SDS011;13106;50.808;5.670;2022-10-31T09:34:48;29.38;;;16.95;;
25125;SDS011;13106;50.808;5.670;2022-10-31T09:37:14;30.60;;;17.60;;
25125;SDS011;13106;50.808;5.670;2022-10-31T09:39:41;33.40;;;17.05;;
25125;SDS011;13106;50.808;5.670;2022-10-31T09:47:09;36.30;;;17.92;;
25125;SDS011;13106;50.808;5.670;2022-10-31T09:52:30;32.92;;;18.33;;
25125;SDS011;13106;50.808;5.670;2022-10-31T09:57:42;35.20;;;17.25;;
25125;SDS011;13106;50.808;5.670;2022-10-31T10:00:14;34.78;;;18.30;;
25125;SDS011;13106;50.808;5.670;2022-10-31T10:02:56;38.08;;;18.05;;
25125;SDS011;13106;50.808;5.670;2022-10-31T10:08:12;31.63;;;16.88;;
25125;SDS011;13106;50.808;5.670;2022-10-31T10:10:55;33.80;;;17.00;;
25125;SDS011;13106;50.808;5.670;2022-10-31T10:13:34;28.92;;;16.58;;
25125;SDS011;13106;50.808;5.670;2022-10-31T10:16:07;35.35;;;17.35;;
25125;SDS011;13106;50.808;5.670;2022-10-31T10:26:34;35.30;;;15.73;;
25125;SDS011;13106;50.808;5.670;2022-10-31T10:29:03;29.80;;;15.85;;
25125;SDS011;13106;50.808;5.670;2022-10-31T10:31:37;26.58;;;15.80;;
25125;SDS011;13106;50.808;5.670;2022-10-31T10:34:13;30.40;;;14.98;;
25125;SDS011;13106;50.808;5.670;2022-10-31T10:36:48;26.77;;;14.77;;
25125;SDS011;13106;50.808;5.670;2022-10-31T10:39:22;31.88;;;16.77;;
25125;SDS011;13106;50.808;5.670;2022-10-31T10:41:49;27.90;;;15.82;;
25125;SDS011;13106;50.808;5.670;2022-10-31T10:44:38;33.40;;;15.57;;
25125;SDS011;13106;50.808;5.670;2022-10-31T10:47:25;22.67;;;14.23;;
25125;SDS011;13106;50.808;5.670;2022-10-31T10:50:27;27.23;;;14.90;;
25125;SDS011;13106;50.808;5.670;2022-10-31T10:53:15;29.20;;;14.85;;
25125;SDS011;13106;50.808;5.670;2022-10-31T10:58:15;32.30;;;14.02;;
25125;SDS011;13106;50.808;5.670;2022-10-31T11:00:42;27.20;;;14.25;;
25125;SDS011;13106;50.808;5.670;2022-10-31T11:03:09;24.92;;;14.10;;
25125;SDS011;13106;50.808;5.670;2022-10-31T11:05:40;28.58;;;13.30;;
25125;SDS011;13106;50.808;5.670;2022-10-31T11:08:07;28.45;;;13.57;;
25125;SDS011;13106;50.808;5.670;2022-10-31T11:10:34;28.55;;;13.85;;
25125;SDS011;13106;50.808;5.670;2022-10-31T11:13:33;27.05;;;13.13;;
25125;SDS011;13106;50.808;5.670;2022-10-31T11:16:09;26.50;;;13.48;;
25125;SDS011;13106;50.808;5.670;2022-10-31T11:18:42;21.77;;;13.15;;
25125;SDS011;13106;50.808;5.670;2022-10-31T11:21:19;28.17;;;13.15;;
25125;SDS011;13106;50.808;5.670;2022-10-31T11:23:46;23.15;;;13.18;;
25125;SDS011;13106;50.808;5.670;2022-10-31T11:26:19;27.33;;;12.93;;
25125;SDS011;13106;50.808;5.670;2022-10-31T11:28:55;23.40;;;12.48;;
25125;SDS011;13106;50.808;5.670;2022-10-31T11:31:21;28.50;;;13.60;;
25125;SDS011;13106;50.808;5.670;2022-10-31T11:33:48;29.92;;;13.10;;
25125;SDS011;13106;50.808;5.670;2022-10-31T11:38:44;25.35;;;12.23;;
25125;SDS011;13106;50.808;5.670;2022-10-31T11:41:17;26.33;;;12.13;;
25125;SDS011;13106;50.808;5.670;2022-10-31T11:43:50;28.33;;;12.73;;
25125;SDS011;13106;50.808;5.670;2022-10-31T11:46:35;25.63;;;11.43;;
25125;SDS011;13106;50.808;5.670;2022-10-31T11:49:01;28.00;;;12.02;;
25125;SDS011;13106;50.808;5.670;2022-10-31T11:51:28;19.58;;;11.13;;
25125;SDS011;13106;50.808;5.670;2022-10-31T11:53:57;27.85;;;11.95;;
25125;SDS011;13106;50.808;5.670;2022-10-31T11:56:23;19.45;;;11.23;;
25125;SDS011;13106;50.808;5.670;2022-10-31T11:59:01;22.05;;;11.52;;
25125;SDS011;13106;50.808;5.670;2022-10-31T12:01:28;25.88;;;11.05;;
25125;SDS011;13106;50.808;5.670;2022-10-31T12:03:59;20.73;;;11.60;;
25125;SDS011;13106;50.808;5.670;2022-10-31T12:06:37;21.02;;;11.38;;
25125;SDS011;13106;50.808;5.670;2022-10-31T12:09:19;21.92;;;11.00;;
25125;SDS011;13106;50.808;5.670;2022-10-31T12:24:58;19.13;;;9.93;;
25125;SDS011;13106;50.808;5.670;2022-10-31T12:35:22;17.60;;;9.00;;
25125;SDS011;13106;50.808;5.670;2022-10-31T12:43:20;24.35;;;9.20;;
25125;SDS011;13106;50.808;5.670;2022-10-31T12:45:54;18.98;;;8.38;;
25125;SDS011;13106;50.808;5.670;2022-10-31T12:56:27;21.10;;;9.05;;
25125;SDS011;13106;50.808;5.670;2022-10-31T12:58:56;16.98;;;8.38;;
25125;SDS011;13106;50.808;5.670;2022-10-31T13:01:35;21.98;;;8.15;;
25125;SDS011;13106;50.808;5.670;2022-10-31T13:04:13;20.85;;;8.10;;
25125;SDS011;13106;50.808;5.670;2022-10-31T13:06:47;15.50;;;8.13;;
25125;SDS011;13106;50.808;5.670;2022-10-31T13:09:18;18.40;;;7.82;;
25125;SDS011;13106;50.808;5.670;2022-10-31T13:11:46;13.25;;;8.05;;
25125;SDS011;13106;50.808;5.670;2022-10-31T13:16:46;18.42;;;5.80;;
25125;SDS011;13106;50.808;5.670;2022-10-31T13:19:20;16.27;;;5.53;;
25125;SDS011;13106;50.808;5.670;2022-10-31T13:22:03;14.60;;;4.28;;
25125;SDS011;13106;50.808;5.670;2022-10-31T13:24:34;11.70;;;4.05;;
25125;SDS011;13106;50.808;5.670;2022-10-31T13:27:02;12.50;;;3.90;;
25125;SDS011;13106;50.808;5.670;2022-10-31T13:29:33;12.88;;;4.07;;
25125;SDS011;13106;50.808;5.670;2022-10-31T13:32:04;15.57;;;3.97;;
25125;SDS011;13106;50.808;5.670;2022-10-31T13:34:33;12.93;;;3.55;;
25125;SDS011;13106;50.808;5.670;2022-10-31T13:45:22;12.98;;;3.55;;
25125;SDS011;13106;50.808;5.670;2022-10-31T13:47:59;13.18;;;3.60;;
25125;SDS011;13106;50.808;5.670;2022-10-31T13:50:29;12.95;;;4.38;;
25125;SDS011;13106;50.808;5.670;2022-10-31T13:53:35;12.20;;;3.67;;
25125;SDS011;13106;50.808;5.670;2022-10-31T13:55:49;9.43;;;3.20;;
25125;SDS011;13106;50.808;5.670;2022-10-31T13:58:19;9.75;;;3.42;;
25125;SDS011;13106;50.808;5.670;2022-10-31T14:00:45;9.75;;;3.65;;
25125;SDS011;13106;50.808;5.670;2022-10-31T14:03:18;8.77;;;3.40;;
25125;SDS011;13106;50.808;5.670;2022-10-31T14:05:51;12.70;;;3.08;;
25125;SDS011;13106;50.808;5.670;2022-10-31T14:08:18;10.18;;;4.10;;
25125;SDS011;13106;50.808;5.670;2022-10-31T14:10:46;13.27;;;3.70;;
25125;SDS011;13106;50.808;5.670;2022-10-31T14:15:40;9.90;;;3.45;;
25125;SDS011;13106;50.808;5.670;2022-10-31T14:18:30;10.05;;;3.40;;
25125;SDS011;13106;50.808;5.670;2022-10-31T14:20:54;8.98;;;3.67;;
25125;SDS011;13106;50.808;5.670;2022-10-31T14:28:43;11.10;;;3.42;;
25125;SDS011;13106;50.808;5.670;2022-10-31T14:33:57;9.73;;;3.78;;
25125;SDS011;13106;50.808;5.670;2022-10-31T14:39:08;8.85;;;3.28;;
25125;SDS011;13106;50.808;5.670;2022-10-31T14:41:40;9.27;;;3.47;;
25125;SDS011;13106;50.808;5.670;2022-10-31T14:51:39;13.35;;;3.53;;
25125;SDS011;13106;50.808;5.670;2022-10-31T14:54:07;10.50;;;3.30;;
25125;SDS011;13106;50.808;5.670;2022-10-31T14:56:37;12.45;;;3.67;;
25125;SDS011;13106;50.808;5.670;2022-10-31T14:59:08;7.97;;;3.50;;
25125;SDS011;13106;50.808;5.670;2022-10-31T15:01:35;8.40;;;3.30;;
25125;SDS011;13106;50.808;5.670;2022-10-31T15:04:18;10.00;;;3.70;;
25125;SDS011;13106;50.808;5.670;2022-10-31T15:06:46;14.32;;;3.67;;
25125;SDS011;13106;50.808;5.670;2022-10-31T15:09:54;12.52;;;3.65;;
25125;SDS011;13106;50.808;5.670;2022-10-31T15:12:24;12.38;;;3.70;;
25125;SDS011;13106;50.808;5.670;2022-10-31T15:14:51;9.45;;;3.60;;
25125;SDS011;13106;50.808;5.670;2022-10-31T15:17:17;14.93;;;3.58;;
25125;SDS011;13106;50.808;5.670;2022-10-31T15:19:43;13.88;;;3.97;;
25125;SDS011;13106;50.808;5.670;2022-10-31T15:22:10;8.43;;;3.15;;
25125;SDS011;13106;50.808;5.670;2022-10-31T15:24:39;11.88;;;3.60;;
25125;SDS011;13106;50.808;5.670;2022-10-31T15:27:05;11.18;;;3.60;;
25125;SDS011;13106;50.808;5.670;2022-10-31T15:29:36;8.43;;;3.05;;
25125;SDS011;13106;50.808;5.670;2022-10-31T15:32:17;11.18;;;2.92;;
25125;SDS011;13106;50.808;5.670;2022-10-31T15:34:45;10.65;;;3.25;;
25125;SDS011;13106;50.808;5.670;2022-10-31T15:37:19;11.02;;;3.47;;
25125;SDS011;13106;50.808;5.670;2022-10-31T15:39:46;10.40;;;3.30;;
25125;SDS011;13106;50.808;5.670;2022-10-31T15:44:41;8.90;;;2.95;;
25125;SDS011;13106;50.808;5.670;2022-10-31T15:47:18;10.93;;;3.22;;
25125;SDS011;13106;50.808;5.670;2022-10-31T15:49:49;8.38;;;3.00;;
25125;SDS011;13106;50.808;5.670;2022-10-31T15:57:43;9.23;;;3.40;;
25125;SDS011;13106;50.808;5.670;2022-10-31T16:00:21;11.27;;;3.95;;
25125;SDS011;13106;50.808;5.670;2022-10-31T16:02:47;10.15;;;3.53;;
25125;SDS011;13106;50.808;5.670;2022-10-31T16:05:17;14.02;;;4.20;;
25125;SDS011;13106;50.808;5.670;2022-10-31T16:07:49;9.48;;;3.60;;
25125;SDS011;13106;50.808;5.670;2022-10-31T16:10:23;8.50;;;3.00;;
25125;SDS011;13106;50.808;5.670;2022-10-31T16:12:50;11.18;;;3.53;;
25125;SDS011;13106;50.808;5.670;2022-10-31T16:15:16;9.40;;;3.78;;
25125;SDS011;13106;50.808;5.670;2022-10-31T16:17:43;14.00;;;3.67;;
25125;SDS011;13106;50.808;5.670;2022-10-31T16:20:23;11.02;;;3.08;;
25125;SDS011;13106;50.808;5.670;2022-10-31T16:22:51;8.48;;;2.70;;
25125;SDS011;13106;50.808;5.670;2022-10-31T16:25:28;13.18;;;3.47;;
25125;SDS011;13106;50.808;5.670;2022-10-31T16:27:59;11.40;;;3.65;;
25125;SDS011;13106;50.808;5.670;2022-10-31T16:30:40;8.85;;;3.70;;
25125;SDS011;13106;50.808;5.670;2022-10-31T16:35:51;12.80;;;3.75;;
25125;SDS011;13106;50.808;5.670;2022-10-31T16:38:18;10.75;;;3.25;;
25125;SDS011;13106;50.808;5.670;2022-10-31T16:40:44;15.55;;;4.15;;
25125;SDS011;13106;50.808;5.670;2022-10-31T16:43:11;11.25;;;4.95;;
25125;SDS011;13106;50.808;5.670;2022-10-31T16:45:37;10.32;;;4.78;;
25125;SDS011;13106;50.808;5.670;2022-10-31T16:48:15;9.43;;;3.42;;